Graham, OK

1:36 PM CDT on August 30, 2014 (GMT -0500)
Ardmore Municipal | Change Station
CLOSE
Current Station
Airport
Location: Ardmore,
Elevation: 761 ft
Nearby Weather Stations

Elev 761 ft 34.30 °N, 97.01 °W | Updated 41 minutes ago

Scattered Clouds
Scattered Clouds
90 °F
Feels Like 98 °F
N
4
Wind Variable Wind from SE

Today
High -- | Low -- °F
--% Chance of Precip.
Yesterday
High -- | Low -- °F
Precip. -- in
7:01 AM 7:58 PM
Waxing Crescent, 23% visible
Pressure 29.94 in
Visibility 10.0 miles
Clouds Scattered Clouds 4000 ft
Heat Index 98 °F
Dew Point 73 °F
Humidity 59%
Rainfall 0.00 in
Snow Depth Not available.
UV 8 out of 12
Pollen 10.00 out of 12
Air Quality Not available.
Flu Activity Not available.
METAR KADM 301755Z 13003KT 10SM SCT040 32/23 A2994

More Conditions Fewer Conditions

Pressure 29.94 in
Visibility 10.0 miles
Clouds Scattered Clouds 4000 ft
Heat Index 98 °F
Dew Point 73 °F
Humidity 59%
Rainfall 0.00 in
Snow Depth Not available.
UV 8 out of 12
Pollen 10.00 out of 12
Air Quality Not available.
Flu Activity Not available.
METAR KADM 301755Z 13003KT 10SM SCT040 32/23 A2994

More Conditions Fewer Conditions

10-Day Weather Forecast

Almanac

Astronomy

Aug. 30, 2014 Rise Set
Actual Time 7:01 AM CDT 7:58 PM CDT
Civil Twilight 6:36 AM CDT 8:24 PM CDT
Nautical Twilight 6:05 AM CDT 8:54 PM CDT
Astronomical Twilight 5:34 AM CDT 9:26 PM CDT
Moon 11:36 AM CDT 10:48 PM CDT
Length of Visible Light 13h 48m
Length of Day
12h 56m
Tomorrow will be 2m 2s shorter.
Waxing Crescent, 23% of the Moon is Illuminated
Today
Waxing Crescent
Sep 2
First Quarter
Sep 8
Full
Sep 15
Last Quarter
Sep 24
New

Today's Extremes

State Highs State Lows

Community

WunderPhotos

Upload Photos

1,748,591 photos uploaded!

WunderBlogs® & News

Nearby

Snow Depth

Station Depth Elevation
No new snow has been reported.

Earthquake Activity

City Distance Mag. Time & Date
Guthrie, Oklahoma 104 miles 3.2 10:39 AM CDT
2014-08-29
Perry, Oklahoma 131 miles 3.0 4:52 AM CDT
2014-08-29
Perry, Oklahoma 131 miles 3.1 10:01 PM CDT
2014-08-28
Minimum magnitude displayed is 2.5.

Coastal Water Temperatures

Place Temperature
No Stations Reporting

Nearby Weather Stations